createdAt,value
2019-01-18T00:02:25.815Z,59.18
2019-01-18T00:04:57.848Z,59.13
2019-01-18T00:07:29.516Z,59.15
2019-01-18T00:10:01.169Z,59.22
2019-01-18T00:12:32.766Z,59.29
2019-01-18T00:15:05.713Z,59.35
2019-01-18T00:17:37.317Z,59.41
2019-01-18T00:20:09.939Z,59.46
2019-01-18T00:22:41.558Z,59.48
2019-01-18T00:25:13.275Z,59.50
2019-01-18T00:27:44.943Z,59.50
2019-01-18T00:30:18.633Z,59.48
2019-01-18T00:32:51.195Z,59.47
2019-01-18T00:35:25.920Z,59.45
2019-01-18T00:37:58.613Z,59.41
2019-01-18T00:40:31.447Z,59.35
2019-01-18T00:43:06.369Z,59.41
2019-01-18T00:45:41.553Z,59.42
2019-01-18T00:48:15.748Z,59.39
2019-01-18T00:50:49.891Z,59.35
2019-01-18T00:53:23.246Z,59.31
2019-01-18T00:55:56.381Z,59.26
2019-01-18T00:58:30.475Z,59.20
2019-01-18T01:01:06.015Z,59.17
2019-01-18T01:03:40.724Z,59.13
2019-01-18T01:06:15.829Z,59.09
2019-01-18T01:08:51.335Z,59.05
2019-01-18T01:11:30.433Z,59.05
2019-01-18T01:14:02.292Z,59.04
2019-01-18T01:16:37.442Z,59.04
2019-01-18T01:19:10.719Z,59.01
2019-01-18T01:21:43.920Z,59.05
2019-01-18T01:24:16.768Z,59.05
2019-01-18T01:26:51.477Z,59.04
2019-01-18T01:29:34.573Z,59.06
2019-01-18T01:32:07.860Z,59.11
2019-01-18T01:34:42.049Z,59.13
2019-01-18T01:37:22.953Z,59.16
2019-01-18T01:40:04.323Z,59.16
2019-01-18T01:42:37.068Z,59.08
2019-01-18T01:45:12.568Z,59.09
2019-01-18T01:47:46.805Z,59.08
2019-01-18T01:50:32.347Z,59.08
2019-01-18T01:53:07.086Z,59.11
2019-01-18T01:55:41.049Z,59.22
2019-01-18T01:58:17.083Z,59.30
2019-01-18T02:00:50.720Z,59.29
2019-01-18T02:03:23.681Z,59.32
2019-01-18T02:05:57.655Z,59.33
2019-01-18T02:08:30.846Z,59.32
2019-01-18T02:11:04.429Z,59.30
2019-01-18T02:13:37.816Z,59.35
2019-01-18T02:16:13.517Z,59.40
2019-01-18T02:18:50.607Z,59.42
2019-01-18T02:21:22.380Z,59.42
2019-01-18T02:23:54.071Z,59.41
2019-01-18T02:26:26.856Z,59.38
2019-01-18T02:28:58.583Z,59.33
2019-01-18T02:31:30.294Z,59.31
2019-01-18T02:34:01.913Z,59.30
2019-01-18T02:36:34.212Z,59.28
2019-01-18T02:39:07.920Z,59.33
2019-01-18T02:41:39.967Z,59.33
2019-01-18T02:44:12.304Z,59.36
2019-01-18T02:46:43.952Z,59.36
2019-01-18T02:49:15.596Z,59.37
2019-01-18T02:51:47.216Z,59.36
2019-01-18T02:54:19.527Z,59.33
2019-01-18T02:56:51.945Z,59.30
2019-01-18T02:59:23.536Z,59.27
2019-01-18T03:01:56.413Z,59.22
2019-01-18T03:04:29.566Z,59.17
2019-01-18T03:07:01.232Z,59.15
2019-01-18T03:09:32.821Z,59.14
2019-01-18T03:12:05.140Z,59.11
2019-01-18T03:14:36.721Z,59.07
2019-01-18T03:17:09.768Z,59.05
2019-01-18T03:19:41.388Z,59.01
2019-01-18T03:22:13.729Z,58.95
2019-01-18T03:24:45.634Z,58.88
2019-01-18T03:27:17.915Z,58.88
2019-01-18T03:29:51.320Z,58.87
2019-01-18T03:32:22.978Z,58.87
2019-01-18T03:34:54.675Z,58.90
2019-01-18T03:37:26.359Z,58.92
2019-01-18T03:39:57.969Z,58.97
2019-01-18T03:42:30.592Z,58.97
2019-01-18T03:45:02.243Z,58.99
2019-01-18T03:47:34.087Z,59.04
2019-01-18T03:50:07.308Z,59.08
2019-01-18T03:52:39.149Z,59.10
2019-01-18T03:55:11.557Z,59.09
2019-01-18T03:57:43.175Z,59.09
2019-01-18T04:00:26.221Z,59.07
2019-01-18T04:02:55.772Z,59.05
2019-01-18T04:05:28.669Z,59.03
2019-01-18T04:08:00.304Z,59.02
2019-01-18T04:10:32.020Z,58.98
2019-01-18T04:13:05.928Z,58.93
2019-01-18T04:15:46.170Z,58.94
2019-01-18T04:18:18.123Z,58.93
2019-01-18T04:20:49.756Z,58.95
2019-01-18T04:23:21.354Z,58.94
2019-01-18T04:25:52.982Z,58.92
2019-01-18T04:28:24.808Z,58.91
2019-01-18T04:30:57.100Z,58.88
2019-01-18T04:33:28.720Z,58.87
2019-01-18T04:36:00.360Z,58.92
2019-01-18T04:38:32.888Z,58.97
2019-01-18T04:41:04.676Z,58.99
2019-01-18T04:43:36.248Z,58.97
2019-01-18T04:46:09.181Z,58.99
2019-01-18T04:48:41.061Z,59.01
2019-01-18T04:51:12.687Z,59.00
2019-01-18T04:53:44.314Z,59.04
2019-01-18T04:56:17.457Z,59.06
2019-01-18T04:58:49.165Z,59.08
2019-01-18T05:01:21.505Z,59.10
2019-01-18T05:03:53.165Z,59.11
2019-01-18T05:06:24.873Z,59.10
2019-01-18T05:08:56.510Z,59.08
2019-01-18T05:11:28.326Z,59.07
2019-01-18T05:14:00.019Z,59.05
2019-01-18T05:16:32.412Z,59.06
2019-01-18T05:19:04.070Z,59.07
2019-01-18T05:21:35.744Z,59.04
2019-01-18T05:24:07.362Z,59.02
2019-01-18T05:26:40.729Z,59.00
2019-01-18T05:29:13.780Z,59.00
2019-01-18T05:31:47.064Z,59.05
2019-01-18T05:34:18.723Z,59.06
2019-01-18T05:36:50.343Z,59.01
2019-01-18T05:39:21.981Z,59.01
2019-01-18T05:41:53.727Z,59.01
2019-01-18T05:44:30.485Z,58.96
2019-01-18T05:47:07.618Z,58.93
2019-01-18T05:49:39.855Z,58.94
2019-01-18T05:52:14.126Z,58.96
2019-01-18T05:54:46.579Z,58.94
2019-01-18T05:57:24.758Z,58.93
2019-01-18T05:59:56.415Z,58.93
2019-01-18T06:02:31.763Z,58.91
2019-01-18T06:05:07.796Z,58.89
2019-01-18T06:07:52.565Z,58.85
2019-01-18T06:10:23.994Z,58.83
2019-01-18T06:12:55.673Z,58.81
2019-01-18T06:15:27.325Z,58.82
2019-01-18T06:18:05.538Z,58.82
2019-01-18T06:20:37.450Z,58.81
2019-01-18T06:23:10.881Z,58.85
2019-01-18T06:26:01.940Z,58.90
2019-01-18T06:28:38.381Z,58.87
2019-01-18T06:31:11.832Z,58.90
2019-01-18T06:33:48.132Z,58.92
2019-01-18T06:36:23.147Z,58.92
2019-01-18T06:38:55.937Z,58.89
2019-01-18T06:41:50.122Z,58.88
2019-01-18T06:44:22.084Z,58.87
2019-01-18T06:46:54.940Z,58.91
2019-01-18T06:49:26.554Z,58.99
2019-01-18T06:51:58.185Z,58.98
2019-01-18T06:54:30.454Z,58.99
2019-01-18T06:57:02.101Z,58.96
2019-01-18T06:59:34.333Z,58.89
2019-01-18T07:02:06.221Z,58.85
2019-01-18T07:04:41.483Z,58.83
2019-01-18T07:07:11.223Z,58.80
2019-01-18T07:09:42.880Z,58.83
2019-01-18T07:12:14.526Z,58.85
2019-01-18T07:14:46.880Z,58.82
2019-01-18T07:17:18.510Z,58.81
2019-01-18T07:19:50.319Z,58.80
2019-01-18T07:22:22.070Z,58.80
2019-01-18T07:24:54.358Z,58.82
2019-01-18T07:27:27.020Z,58.82
2019-01-18T07:29:58.653Z,58.85
2019-01-18T07:32:30.730Z,58.87
2019-01-18T07:35:02.360Z,58.91
2019-01-18T07:37:34.026Z,58.96
2019-01-18T07:40:06.308Z,59.00
2019-01-18T07:42:37.966Z,59.03
2019-01-18T07:45:15.578Z,59.07
2019-01-18T07:47:48.054Z,59.13
2019-01-18T07:50:20.364Z,59.14
2019-01-18T07:52:52.257Z,59.17
2019-01-18T07:55:24.830Z,59.13
2019-01-18T07:57:56.609Z,59.10
2019-01-18T08:00:30.397Z,59.09
2019-01-18T08:03:02.675Z,59.06
2019-01-18T08:05:34.621Z,59.03
2019-01-18T08:08:06.721Z,58.99
2019-01-18T08:10:39.588Z,58.96
2019-01-18T08:13:11.355Z,58.94
2019-01-18T08:15:43.012Z,58.96
2019-01-18T08:18:15.380Z,59.05
2019-01-18T08:20:47.024Z,59.06
2019-01-18T08:23:18.864Z,59.08
2019-01-18T08:25:50.557Z,59.09
2019-01-18T08:28:22.206Z,59.09
2019-01-18T08:30:53.839Z,59.11
2019-01-18T08:33:26.134Z,59.10
2019-01-18T08:35:57.759Z,59.11
2019-01-18T08:38:29.432Z,59.15
2019-01-18T08:41:01.085Z,59.18
2019-01-18T08:43:32.720Z,59.21
2019-01-18T08:46:08.523Z,59.25
2019-01-18T08:48:40.896Z,59.28
2019-01-18T08:51:12.566Z,59.32
2019-01-18T08:53:44.274Z,59.43
2019-01-18T08:56:16.836Z,59.51
2019-01-18T08:58:48.748Z,59.54
2019-01-18T09:01:20.485Z,59.53
2019-01-18T09:03:52.142Z,59.55
2019-01-18T09:06:24.335Z,59.53
2019-01-18T09:08:56.068Z,59.49
2019-01-18T09:11:27.786Z,59.45
2019-01-18T09:13:59.780Z,59.40
2019-01-18T09:16:52.410Z,59.32
2019-01-18T09:19:28.587Z,59.29
2019-01-18T09:22:03.222Z,59.28
2019-01-18T09:24:38.605Z,59.32
2019-01-18T09:27:10.457Z,59.43
2019-01-18T09:29:46.549Z,59.50
2019-01-18T09:32:18.405Z,59.53
2019-01-18T09:34:50.060Z,59.56
2019-01-18T09:37:22.446Z,59.52
2019-01-18T09:39:54.130Z,59.53
2019-01-18T09:42:27.132Z,59.57
2019-01-18T09:44:58.798Z,59.52
2019-01-18T09:47:30.460Z,59.52
2019-01-18T09:50:02.136Z,59.54
2019-01-18T09:52:40.586Z,59.57
2019-01-18T09:55:14.242Z,59.50
2019-01-18T09:57:45.962Z,59.41
2019-01-18T10:00:24.515Z,59.28
2019-01-18T10:02:56.366Z,59.23
2019-01-18T10:05:28.204Z,59.22
2019-01-18T10:08:00.479Z,59.23
2019-01-18T10:10:32.280Z,59.29
2019-01-18T10:13:04.162Z,59.29
2019-01-18T10:15:42.691Z,59.31
2019-01-18T10:18:14.872Z,59.24
2019-01-18T10:20:46.603Z,59.22
2019-01-18T10:23:19.170Z,59.16
2019-01-18T10:25:51.481Z,59.11
2019-01-18T10:28:24.760Z,59.06
2019-01-18T10:30:56.427Z,58.97
2019-01-18T10:33:28.811Z,58.89
2019-01-18T10:36:00.432Z,58.85
2019-01-18T10:38:33.749Z,58.85
2019-01-18T10:41:05.544Z,58.70
2019-01-18T10:43:37.207Z,58.55
2019-01-18T10:46:08.817Z,58.42
2019-01-18T10:48:40.517Z,58.25
2019-01-18T10:51:12.162Z,58.10
2019-01-18T10:53:44.657Z,58.00
2019-01-18T10:56:16.953Z,57.92
2019-01-18T10:58:48.593Z,57.87
2019-01-18T11:01:20.178Z,57.80
2019-01-18T11:03:52.038Z,57.77
2019-01-18T11:06:23.675Z,57.74
2019-01-18T11:08:56.024Z,57.73
2019-01-18T11:11:27.665Z,57.69
2019-01-18T11:13:59.383Z,57.62
2019-01-18T11:16:31.024Z,57.60
2019-01-18T11:19:02.689Z,57.62
2019-01-18T11:21:34.895Z,57.65
2019-01-18T11:24:07.229Z,57.63
2019-01-18T11:26:38.989Z,57.69
2019-01-18T11:29:10.680Z,57.76
2019-01-18T11:31:42.298Z,57.84
2019-01-18T11:34:13.960Z,57.83
2019-01-18T11:36:45.585Z,57.94
2019-01-18T11:39:17.870Z,57.92
2019-01-18T11:41:49.514Z,57.87
2019-01-18T11:44:21.212Z,57.78
2019-01-18T11:46:52.964Z,57.66
2019-01-18T11:49:24.644Z,57.48
2019-01-18T11:51:56.267Z,57.21
2019-01-18T11:54:29.296Z,57.09
2019-01-18T11:57:00.969Z,57.02
2019-01-18T11:59:32.708Z,57.01
2019-01-18T12:02:04.588Z,56.90
2019-01-18T12:04:36.249Z,56.75
2019-01-18T12:07:08.108Z,56.62
2019-01-18T12:09:39.839Z,56.31
2019-01-18T12:12:12.144Z,56.02
2019-01-18T12:14:43.859Z,55.96
2019-01-18T12:17:15.487Z,55.83
2019-01-18T12:19:47.318Z,55.71
2019-01-18T12:22:19.714Z,55.49
2019-01-18T12:24:51.436Z,55.25
2019-01-18T12:27:23.801Z,55.15
2019-01-18T12:29:55.426Z,55.16
2019-01-18T12:32:28.855Z,54.90
2019-01-18T12:35:00.643Z,54.73
2019-01-18T12:37:33.287Z,54.53
2019-01-18T12:40:05.285Z,54.53
2019-01-18T12:42:38.667Z,54.37
2019-01-18T12:45:15.357Z,54.33
2019-01-18T12:47:47.049Z,54.25
2019-01-18T12:50:41.030Z,54.15
2019-01-18T12:53:12.672Z,54.01
2019-01-18T12:55:45.084Z,53.97
2019-01-18T12:58:17.232Z,53.89
2019-01-18T13:00:48.919Z,53.75
2019-01-18T13:03:20.850Z,53.51
2019-01-18T13:05:54.350Z,53.54
2019-01-18T13:08:26.160Z,53.55
2019-01-18T13:10:59.335Z,53.61
2019-01-18T13:13:30.988Z,53.66
2019-01-18T13:16:30.258Z,53.59
2019-01-18T13:19:09.768Z,53.61
2019-01-18T13:21:41.462Z,53.47
2019-01-18T13:24:13.177Z,53.53
2019-01-18T13:26:45.124Z,53.47
2019-01-18T13:29:16.924Z,53.28
2019-01-18T13:31:48.554Z,53.26
2019-01-18T13:34:27.296Z,53.29
2019-01-18T13:37:05.371Z,53.23
2019-01-18T13:39:41.834Z,53.25
2019-01-18T13:42:19.416Z,52.87
2019-01-18T13:44:52.774Z,52.77
2019-01-18T13:47:30.850Z,52.85
2019-01-18T13:50:13.760Z,52.84
2019-01-18T13:52:45.891Z,52.67
2019-01-18T13:55:25.743Z,52.56
2019-01-18T13:57:59.267Z,52.48
2019-01-18T14:00:35.016Z,52.49
2019-01-18T14:03:15.604Z,52.42
2019-01-18T14:05:55.608Z,52.41
2019-01-18T14:08:35.738Z,52.45
2019-01-18T14:11:16.592Z,52.44
2019-01-18T14:13:54.547Z,52.39
2019-01-18T14:16:26.816Z,52.45
2019-01-18T14:18:58.602Z,52.43
2019-01-18T14:21:31.314Z,52.20
2019-01-18T14:24:06.675Z,52.14
2019-01-18T14:26:43.262Z,52.02
2019-01-18T14:29:20.532Z,51.95
2019-01-18T14:31:57.114Z,51.94
2019-01-18T14:34:35.323Z,51.92
2019-01-18T14:37:11.675Z,51.82
2019-01-18T14:39:43.538Z,51.97
2019-01-18T14:42:15.913Z,51.96
2019-01-18T14:44:47.582Z,51.94
2019-01-18T14:47:19.902Z,51.98
2019-01-18T14:49:51.604Z,51.92
2019-01-18T14:52:23.325Z,51.88
2019-01-18T14:54:54.940Z,51.88
2019-01-18T14:57:26.608Z,51.78
2019-01-18T14:59:58.292Z,51.77
2019-01-18T15:02:30.827Z,51.75
2019-01-18T15:05:02.459Z,51.64
2019-01-18T15:07:34.139Z,51.45
2019-01-18T15:10:07.775Z,51.65
2019-01-18T15:12:39.467Z,51.66
2019-01-18T15:15:14.069Z,51.71
2019-01-18T15:17:46.721Z,51.75
2019-01-18T15:20:22.917Z,51.75
2019-01-18T15:22:54.740Z,51.70
2019-01-18T15:25:27.064Z,51.66
2019-01-18T15:27:58.759Z,51.66
2019-01-18T15:30:31.797Z,51.58
2019-01-18T15:33:09.148Z,51.59
2019-01-18T15:35:40.490Z,51.71
2019-01-18T15:38:13.333Z,51.71
2019-01-18T15:40:49.861Z,51.75
2019-01-18T15:43:23.311Z,51.67
2019-01-18T15:45:55.040Z,51.68
2019-01-18T15:48:27.354Z,51.72
2019-01-18T15:50:59.048Z,51.80
2019-01-18T15:53:31.570Z,51.86
2019-01-18T15:56:04.253Z,51.90
2019-01-18T15:58:36.078Z,51.88
2019-01-18T16:01:07.866Z,51.82
2019-01-18T16:03:41.513Z,51.75
2019-01-18T16:06:13.181Z,51.72
2019-01-18T16:08:44.909Z,51.68
2019-01-18T16:11:18.911Z,51.61
2019-01-18T16:13:51.008Z,51.58
2019-01-18T16:16:54.381Z,51.70
2019-01-18T16:19:27.065Z,50.93
2019-01-18T16:21:58.809Z,51.38
2019-01-18T16:24:31.311Z,51.41
2019-01-18T16:27:02.960Z,51.45
2019-01-18T16:29:38.641Z,51.48
2019-01-18T16:32:10.466Z,51.53
2019-01-18T16:34:43.156Z,51.57
2019-01-18T16:37:15.052Z,51.62
2019-01-18T16:39:46.778Z,51.69
2019-01-18T16:42:20.642Z,51.74
2019-01-18T16:44:54.253Z,51.78
2019-01-18T16:47:26.955Z,51.80
2019-01-18T16:49:59.378Z,51.86
2019-01-18T16:52:31.157Z,51.93
2019-01-18T16:55:03.016Z,51.99
2019-01-18T16:57:34.795Z,52.03
2019-01-18T17:00:14.971Z,52.07
2019-01-18T17:02:46.893Z,52.13
2019-01-18T17:05:18.600Z,52.22
2019-01-18T17:07:50.767Z,52.25
2019-01-18T17:10:22.697Z,52.27
2019-01-18T17:12:54.494Z,52.30
2019-01-18T17:15:26.383Z,52.32
2019-01-18T17:17:58.282Z,52.36
2019-01-18T17:20:33.626Z,52.38
2019-01-18T17:23:05.845Z,52.40
2019-01-18T17:25:38.043Z,52.45
2019-01-18T17:28:09.846Z,52.46
2019-01-18T17:30:41.575Z,52.50
2019-01-18T17:33:13.331Z,52.55
2019-01-18T17:36:29.939Z,52.60
2019-01-18T17:39:44.958Z,52.61
2019-01-18T17:43:05.694Z,52.61
2019-01-18T17:46:42.059Z,52.64
2019-01-18T17:50:06.640Z,52.67
2019-01-18T17:53:44.339Z,52.75
2019-01-18T17:56:59.365Z,52.83
2019-01-18T18:00:28.201Z,52.94
2019-01-18T18:03:36.555Z,52.95
2019-01-18T18:06:55.360Z,53.00
2019-01-18T18:10:05.372Z,53.07
2019-01-18T18:13:49.851Z,53.08
2019-01-18T18:17:04.474Z,53.11
2019-01-18T18:20:40.950Z,53.13
2019-01-18T18:23:52.244Z,53.14
2019-01-18T18:27:33.413Z,53.23
2019-01-18T18:30:47.733Z,53.32
2019-01-18T18:34:34.756Z,53.33
2019-01-18T18:38:05.680Z,53.35
2019-01-18T18:41:41.827Z,53.35
2019-01-18T18:45:15.828Z,53.42
2019-01-18T18:48:20.305Z,53.59
2019-01-18T18:51:35.669Z,53.79
2019-01-18T18:55:04.876Z,54.06
2019-01-18T18:58:55.783Z,54.28
2019-01-18T19:02:42.972Z,54.47
2019-01-18T19:06:26.195Z,54.65
2019-01-18T19:10:01.060Z,54.77
2019-01-18T19:13:30.956Z,54.90
2019-01-18T19:16:31.349Z,54.98
2019-01-18T19:19:59.318Z,55.00
2019-01-18T19:23:34.757Z,55.00
2019-01-18T19:26:40.845Z,54.99
2019-01-18T19:30:06.305Z,55.05
2019-01-18T19:33:23.881Z,55.09
2019-01-18T19:36:32.744Z,55.03
2019-01-18T19:39:51.720Z,55.09
2019-01-18T19:43:50.966Z,55.08
2019-01-18T19:47:16.294Z,55.07
2019-01-18T19:50:43.906Z,54.99
2019-01-18T19:53:48.010Z,54.96
2019-01-18T19:56:57.210Z,54.91
2019-01-18T20:00:29.487Z,54.96
2019-01-18T20:03:54.031Z,55.03
2019-01-18T20:07:13.219Z,55.14
2019-01-18T20:10:44.713Z,55.23
2019-01-18T20:13:57.561Z,55.28
2019-01-18T20:17:07.101Z,55.37
2019-01-18T20:20:29.377Z,55.42
2019-01-18T20:23:39.965Z,55.43
2019-01-18T20:27:05.270Z,55.44
2019-01-18T20:30:30.515Z,55.48
2019-01-18T20:34:21.476Z,55.49
2019-01-18T20:37:47.201Z,55.52
2019-01-18T20:41:03.933Z,55.49
2019-01-18T20:44:23.034Z,55.52
2019-01-18T20:47:58.078Z,55.61
2019-01-18T20:51:41.507Z,55.70
2019-01-18T20:55:21.300Z,55.71
2019-01-18T20:58:55.492Z,55.68
2019-01-18T21:02:05.163Z,55.65
2019-01-18T21:05:40.286Z,55.68
2019-01-18T21:08:55.870Z,55.73
2019-01-18T21:12:54.826Z,55.76
2019-01-18T21:16:41.569Z,55.82
2019-01-18T21:20:44.735Z,55.81
2019-01-18T21:24:11.740Z,55.82
2019-01-18T21:27:36.798Z,55.83
2019-01-18T21:31:37.278Z,55.86
2019-01-18T21:35:20.746Z,55.98
2019-01-18T21:38:47.689Z,55.99
2019-01-18T21:42:14.504Z,56.04
2019-01-18T21:45:08.500Z,56.07
2019-01-18T21:47:37.848Z,56.08
2019-01-18T21:51:11.741Z,56.11
2019-01-18T21:54:06.361Z,56.16
2019-01-18T21:57:22.841Z,56.13
2019-01-18T22:00:44.659Z,56.17
2019-01-18T22:03:59.130Z,56.23
2019-01-18T22:07:27.470Z,56.20
2019-01-18T22:10:34.886Z,56.20
2019-01-18T22:14:02.109Z,56.20
2019-01-18T22:17:38.370Z,56.19
2019-01-18T22:21:03.047Z,56.19
2019-01-18T22:24:16.098Z,56.14
2019-01-18T22:27:57.301Z,56.11
2019-01-18T22:31:15.631Z,56.07
2019-01-18T22:34:23.942Z,56.06
2019-01-18T22:37:47.447Z,56.09
2019-01-18T22:41:21.638Z,56.09
2019-01-18T22:45:03.381Z,56.11
2019-01-18T22:48:17.536Z,56.08
2019-01-18T22:51:57.843Z,56.07
2019-01-18T22:55:34.092Z,56.14
2019-01-18T22:59:03.750Z,56.27
2019-01-18T23:02:09.040Z,56.38
2019-01-18T23:05:38.613Z,56.47
2019-01-18T23:09:02.679Z,56.55
2019-01-18T23:12:33.155Z,56.61
2019-01-18T23:16:06.263Z,56.58
2019-01-18T23:18:54.273Z,56.57
2019-01-18T23:22:15.530Z,56.63
2019-01-18T23:25:01.055Z,56.72
2019-01-18T23:28:17.498Z,56.86
2019-01-18T23:31:09.442Z,57.01
2019-01-18T23:34:36.075Z,57.10
2019-01-18T23:37:29.319Z,57.23
2019-01-18T23:40:49.858Z,57.37
2019-01-18T23:44:04.443Z,57.47
2019-01-18T23:47:17.880Z,57.58
2019-01-18T23:50:52.839Z,57.65
2019-01-18T23:53:58.023Z,57.68
2019-01-18T23:57:28.957Z,57.67
